CA67 weather

Westley Airport
Westley, California, United States

Public forecast

Using degrees Fahrenheit for public forecast. Weather courtesy of forecast.io.

Closest aviation weather report (METAR) to Westley Airport

Closest report is Modesto City Co-Harry Sham Field, 12.8 nm (23.7 km) ENE. Retrieved 2019/10/17 09:53 UTC (23 minutes ago):

KMOD 170953Z AUTO 01007KT 10SM FEW042 16/11 A2987 RMK AO2 SLP113 T01560106

Closest aviation forecast (TAF) to Westley Airport

Closest forecast is Modesto City Co-Harry Sham Field, 12.8 nm (23.7 km) ENE. Retrieved 2019/10/17 06:24 UTC (4 hours ago):

TAF KMOD 170520Z 1706/1806 33010KT P6SM OVC200 FM171000 32008KT P6SM BKN100 FM171800 32011KT P6SM SCT040 SCT250 FM180100 32014KT P6SM SKC